Time;durP1;ratioP1;P1;durP2;ratioP2;P2;SDS_P1;SDS_P2;PMS_P1;PMS_P2;Temp;Humidity;BMP_temperature;BMP_pressure;BME280_temperature;BME280_humidity;BME280_pressure;Samples;Min_cycle;Max_cycle;Signal;HPM_P1;HPM_P2
2022/08/16 00:01:00;;;;;;;5.93;3.22;;;21.40;71.80;;;;;;5031242;28;20037;-67
2022/08/16 00:03:26;;;;;;;6.60;3.75;;;21.40;71.90;;;;;;5031567;28;20082;-68
2022/08/16 00:05:52;;;;;;;5.28;3.60;;;21.40;71.90;;;;;;5030488;28;20069;-67
2022/08/16 00:08:18;;;;;;;27.05;4.82;;;21.40;71.90;;;;;;5031635;28;20021;-67
2022/08/16 00:10:45;;;;;;;4.55;3.58;;;21.40;71.90;;;;;;5030832;28;20131;-67
2022/08/16 00:13:11;;;;;;;7.50;3.83;;;21.40;71.90;;;;;;5031772;28;20506;-67
2022/08/16 00:15:41;;;;;;;5.30;3.72;;;21.40;71.90;;;;;;5031592;28;20025;-67
2022/08/16 00:18:08;;;;;;;4.72;3.58;;;21.40;71.90;;;;;;5030930;28;20109;-67
2022/08/16 00:20:36;;;;;;;4.13;2.95;;;21.40;71.90;;;;;;5030472;28;20041;-67
2022/08/16 00:23:02;;;;;;;4.22;3.20;;;21.40;72.70;;;;;;5029187;28;20030;-68
2022/08/16 00:25:27;;;;;;;9.15;3.53;;;21.40;71.90;;;;;;5013229;28;20041;-67
2022/08/16 00:27:53;;;;;;;7.78;3.80;;;21.40;71.90;;;;;;5031040;28;20278;-67
2022/08/16 00:30:21;;;;;;;5.20;3.78;;;21.40;71.90;;;;;;5031319;28;20033;-67
2022/08/16 00:32:49;;;;;;;7.70;3.38;;;21.40;71.90;;;;;;5030510;28;20494;-68
2022/08/16 00:35:23;;;;;;;9.32;3.63;;;21.30;71.90;;;;;;5029747;28;20036;-68
2022/08/16 00:37:49;;;;;;;25.20;4.55;;;21.30;71.90;;;;;;5031006;28;20049;-67
2022/08/16 00:40:20;;;;;;;7.50;3.38;;;21.30;71.90;;;;;;5030652;28;20419;-67
2022/08/16 00:42:46;;;;;;;4.03;2.85;;;21.30;71.90;;;;;;5012656;28;20317;-68
2022/08/16 00:45:34;;;;;;;4.97;3.13;;;21.30;71.90;;;;;;5031334;28;20057;-67
2022/08/16 00:48:04;;;;;;;4.65;3.05;;;21.30;71.90;;;;;;5029797;28;20029;-67
2022/08/16 00:50:31;;;;;;;4.68;2.45;;;21.30;72.00;;;;;;5029663;28;20037;-67
2022/08/16 00:52:57;;;;;;;3.85;2.70;;;21.30;71.90;;;;;;5030261;28;20156;-67
2022/08/16 00:55:24;;;;;;;4.35;2.50;;;21.30;72.00;;;;;;5013292;28;20068;-67
2022/08/16 00:57:53;;;;;;;4.15;2.90;;;21.30;72.00;;;;;;5030447;28;20025;-68
2022/08/16 01:00:19;;;;;;;4.35;2.90;;;21.30;72.00;;;;;;5029943;28;20033;-67
2022/08/16 01:02:45;;;;;;;3.05;2.55;;;21.30;72.00;;;;;;5029783;28;20044;-67
2022/08/16 01:05:11;;;;;;;5.13;3.13;;;21.30;72.00;;;;;;5030562;28;20033;-68
2022/08/16 01:07:37;;;;;;;4.32;2.92;;;21.30;72.00;;;;;;5029650;28;20021;-67
2022/08/16 01:10:03;;;;;;;5.85;3.30;;;21.30;72.10;;;;;;5029978;28;20363;-67
2022/08/16 01:12:29;;;;;;;5.75;3.30;;;21.30;72.10;;;;;;5011891;28;20032;-67
2022/08/16 01:14:58;;;;;;;3.58;2.67;;;21.20;72.00;;;;;;5045135;28;20116;-68
2022/08/16 01:17:27;;;;;;;3.90;2.65;;;21.20;72.00;;;;;;5030541;28;20025;-67
2022/08/16 01:20:00;;;;;;;3.20;2.90;;;21.20;72.80;;;;;;5030221;28;20032;-67
2022/08/16 01:24:59;;;;;;;4.32;2.88;;;21.20;72.00;;;;;;5030549;28;20061;-66
2022/08/16 01:27:40;;;;;;;4.70;2.95;;;21.20;72.80;;;;;;5030337;28;20033;-66
2022/08/16 01:30:19;;;;;;;4.15;3.00;;;21.20;72.00;;;;;;5045836;28;20025;-66
2022/08/16 01:32:45;;;;;;;4.47;3.17;;;21.20;72.00;;;;;;5070011;28;20086;-67
2022/08/16 01:35:33;;;;;;;4.90;3.42;;;21.20;72.10;;;;;;5051774;28;20032;-67
2022/08/16 01:38:28;;;;;;;7.40;3.85;;;21.20;72.10;;;;;;5056759;28;20041;-66
2022/08/16 01:40:57;;;;;;;3.85;3.30;;;21.20;72.10;;;;;;5049462;28;20056;-66
2022/08/16 01:43:24;;;;;;;5.50;2.85;;;21.20;72.10;;;;;;5049317;28;20020;-67
2022/08/16 01:45:56;;;;;;;4.00;3.15;;;21.20;72.10;;;;;;5031604;28;20033;-66
2022/08/16 01:48:25;;;;;;;4.80;3.63;;;21.20;72.10;;;;;;5050076;28;20280;-66
2022/08/16 01:50:52;;;;;;;4.88;3.70;;;21.20;72.20;;;;;;5031727;28;20551;-66
2022/08/16 01:53:18;;;;;;;7.55;3.95;;;21.20;72.20;;;;;;5018343;28;20532;-66
2022/08/16 01:55:44;;;;;;;7.20;3.60;;;21.20;72.20;;;;;;5029898;28;20022;-67
2022/08/16 01:58:14;;;;;;;6.88;3.28;;;21.20;72.20;;;;;;5011699;28;20025;-66
2022/08/16 02:00:40;;;;;;;5.82;4.10;;;21.20;72.20;;;;;;5029570;28;20041;-67
2022/08/16 02:03:06;;;;;;;6.85;3.42;;;21.20;72.20;;;;;;5029618;28;20528;-66
2022/08/16 02:05:31;;;;;;;5.55;3.70;;;21.10;72.20;;;;;;5029901;28;20032;-66
2022/08/16 02:07:57;;;;;;;6.18;3.88;;;21.10;72.20;;;;;;5038868;28;20034;-66
2022/08/16 02:10:24;;;;;;;4.05;3.13;;;21.10;72.20;;;;;;5032161;28;20378;-66
2022/08/16 02:12:50;;;;;;;7.40;3.20;;;21.10;72.20;;;;;;5030222;28;20424;-66
2022/08/16 02:15:35;;;;;;;4.53;3.33;;;21.10;72.20;;;;;;5012240;28;20022;-66
2022/08/16 02:18:03;;;;;;;7.13;3.50;;;21.10;72.30;;;;;;5030101;28;20100;-66
2022/08/16 02:20:34;;;;;;;6.35;3.20;;;21.10;72.20;;;;;;5029414;28;20044;-66
2022/08/16 02:23:00;;;;;;;5.78;3.65;;;21.10;72.30;;;;;;5039793;28;20071;-68
2022/08/16 02:25:26;;;;;;;5.30;3.20;;;21.10;72.20;;;;;;5068694;28;20025;-66
2022/08/16 02:27:53;;;;;;;6.15;3.40;;;21.10;72.30;;;;;;5053508;28;20033;-66
2022/08/16 02:30:23;;;;;;;6.43;2.67;;;21.10;72.30;;;;;;5053389;28;20021;-66
2022/08/16 02:32:49;;;;;;;5.00;2.95;;;21.10;72.40;;;;;;5053244;28;20036;-66
2022/08/16 02:35:16;;;;;;;4.47;3.03;;;21.10;72.30;;;;;;5035581;28;20502;-66
2022/08/16 02:37:41;;;;;;;4.15;3.10;;;21.10;72.30;;;;;;5051606;28;20095;-66
2022/08/16 02:40:09;;;;;;;5.18;3.13;;;21.10;72.30;;;;;;5053148;28;20083;-66
2022/08/16 02:42:36;;;;;;;4.30;2.50;;;21.10;72.30;;;;;;5053117;28;20025;-66
2022/08/16 02:45:02;;;;;;;8.30;3.22;;;21.10;72.30;;;;;;5035288;28;20025;-67
2022/08/16 02:47:28;;;;;;;4.03;2.88;;;21.10;72.40;;;;;;5053416;28;20087;-66
2022/08/16 02:49:53;;;;;;;9.52;2.92;;;21.10;72.30;;;;;;5053017;28;20033;-67
2022/08/16 02:52:19;;;;;;;6.40;2.88;;;21.10;72.30;;;;;;5050945;28;20031;-67
2022/08/16 02:54:45;;;;;;;3.97;2.65;;;21.10;72.30;;;;;;5053044;28;20017;-66
2022/08/16 02:57:11;;;;;;;3.88;2.80;;;21.10;72.30;;;;;;5048277;28;20074;-66
2022/08/16 02:59:37;;;;;;;3.80;3.10;;;21.10;72.30;;;;;;5052288;28;20017;-66
2022/08/16 03:02:03;;;;;;;5.20;2.95;;;21.10;72.30;;;;;;5052652;28;20033;-66
2022/08/16 03:04:31;;;;;;;6.43;2.88;;;21.10;72.30;;;;;;5051966;28;20029;-66
2022/08/16 03:06:56;;;;;;;4.40;3.08;;;21.10;72.40;;;;;;5051669;28;20524;-66
2022/08/16 03:09:23;;;;;;;4.78;3.42;;;21.10;72.40;;;;;;5051821;28;20025;-66
2022/08/16 03:11:49;;;;;;;6.88;3.42;;;21.00;72.40;;;;;;5052124;28;20098;-67
2022/08/16 03:14:14;;;;;;;7.40;3.40;;;21.10;72.40;;;;;;5052479;28;20465;-66
2022/08/16 03:16:40;;;;;;;6.32;3.30;;;21.00;72.30;;;;;;5034883;28;20385;-66
2022/08/16 03:19:07;;;;;;;6.55;3.20;;;21.00;72.30;;;;;;5052717;28;20021;-66
2022/08/16 03:21:33;;;;;;;6.60;3.45;;;21.00;72.30;;;;;;5052198;28;20033;-66
2022/08/16 03:23:58;;;;;;;4.85;3.25;;;21.00;73.10;;;;;;5033868;28;20500;-66
2022/08/16 03:26:24;;;;;;;3.53;2.88;;;21.00;72.40;;;;;;5052593;28;20428;-66
2022/08/16 03:28:49;;;;;;;4.72;3.10;;;21.00;72.40;;;;;;5034048;28;20032;-66
2022/08/16 03:31:15;;;;;;;3.83;2.97;;;21.00;72.40;;;;;;5033237;28;20051;-66
2022/08/16 03:33:41;;;;;;;3.53;2.83;;;21.00;72.40;;;;;;5052204;28;20542;-66
2022/08/16 03:36:07;;;;;;;6.00;3.40;;;21.00;72.40;;;;;;5052291;28;20496;-66
2022/08/16 03:38:34;;;;;;;3.92;3.22;;;21.00;72.40;;;;;;5051554;28;20029;-66
2022/08/16 03:41:00;;;;;;;6.65;3.05;;;21.00;72.40;;;;;;5051554;28;20028;-67
2022/08/16 03:43:27;;;;;;;3.83;3.15;;;21.00;72.40;;;;;;5034022;28;20017;-66
2022/08/16 03:45:56;;;;;;;6.28;3.17;;;21.00;72.40;;;;;;5052116;28;20159;-66
2022/08/16 03:48:31;;;;;;;5.15;2.80;;;21.00;72.40;;;;;;5052069;28;20474;-66
2022/08/16 03:50:58;;;;;;;6.18;2.83;;;21.00;72.40;;;;;;5051526;28;20036;-66
2022/08/16 03:53:24;;;;;;;5.40;3.17;;;21.00;72.40;;;;;;5050645;28;20119;-66
2022/08/16 03:55:50;;;;;;;5.72;3.70;;;21.00;72.40;;;;;;5051372;28;20107;-66
2022/08/16 03:58:16;;;;;;;6.25;3.17;;;21.00;72.50;;;;;;5051727;28;20486;-66
2022/08/16 04:00:42;;;;;;;4.38;2.88;;;21.00;72.40;;;;;;5052188;28;20370;-65
2022/08/16 04:03:08;;;;;;;8.80;3.30;;;21.00;72.50;;;;;;5051459;28;20029;-66
2022/08/16 04:05:36;;;;;;;7.80;3.38;;;20.90;72.40;;;;;;5033677;28;20460;-66
2022/08/16 04:08:03;;;;;;;4.82;3.13;;;21.00;72.50;;;;;;5050311;28;20390;-68
2022/08/16 04:10:29;;;;;;;5.10;3.47;;;20.90;72.40;;;;;;5051362;28;20033;-66
2022/08/16 04:12:55;;;;;;;5.05;3.28;;;20.90;72.40;;;;;;5050881;28;20029;-66
2022/08/16 04:15:21;;;;;;;5.43;3.38;;;20.90;72.40;;;;;;5051402;28;20025;-66
2022/08/16 04:17:47;;;;;;;6.07;3.80;;;21.00;72.40;;;;;;5051219;28;20107;-66
2022/08/16 04:20:14;;;;;;;6.57;3.72;;;20.90;72.40;;;;;;5051177;28;20033;-66
2022/08/16 04:22:42;;;;;;;10.45;3.83;;;20.90;72.40;;;;;;5050407;28;20031;-68
2022/08/16 04:25:09;;;;;;;5.35;3.65;;;20.90;72.40;;;;;;5033813;28;20080;-67
2022/08/16 04:27:35;;;;;;;6.13;3.45;;;20.90;72.40;;;;;;5031176;28;20071;-67
2022/08/16 04:30:05;;;;;;;6.32;3.60;;;20.90;72.40;;;;;;5031154;28;20025;-66
2022/08/16 04:32:31;;;;;;;;;;;20.90;72.40;;;;;;5030821;28;20429;-66
2022/08/16 04:34:56;;;;;;;5.22;3.83;;;20.90;72.40;;;;;;5031140;28;19950;-66
2022/08/16 04:37:22;;;;;;;4.90;3.50;;;20.90;72.40;;;;;;5030911;28;20026;-66
2022/08/16 04:39:47;;;;;;;5.93;3.95;;;20.90;72.40;;;;;;5043291;28;20033;-66
2022/08/16 04:42:16;;;;;;;6.50;4.25;;;20.90;72.40;;;;;;5050296;28;20060;-66
2022/08/16 04:44:42;;;;;;;7.13;4.40;;;20.90;72.40;;;;;;5050244;28;20025;-66
2022/08/16 04:47:08;;;;;;;9.00;4.45;;;20.90;72.40;;;;;;5050654;28;20052;-66
2022/08/16 04:49:34;;;;;;;6.43;4.20;;;20.90;72.40;;;;;;5050847;28;20040;-66
2022/08/16 04:52:00;;;;;;;6.63;4.65;;;20.90;72.40;;;;;;5049616;28;20029;-67
2022/08/16 04:54:26;;;;;;;7.07;4.28;;;20.90;72.40;;;;;;5049575;28;20025;-66
2022/08/16 04:56:52;;;;;;;6.78;4.50;;;20.90;72.40;;;;;;5050202;28;20040;-66
2022/08/16 04:59:17;;;;;;;8.52;4.70;;;20.80;72.40;;;;;;5050877;28;20021;-67
2022/08/16 05:01:43;;;;;;;10.43;5.22;;;20.90;72.50;;;;;;5049759;28;20039;-68
2022/08/16 05:04:09;;;;;;;9.45;5.15;;;20.90;72.50;;;;;;5050113;28;20075;-66
2022/08/16 05:06:34;;;;;;;13.23;5.18;;;20.90;72.40;;;;;;5050072;28;20441;-66
2022/08/16 05:09:00;;;;;;;7.65;4.75;;;20.90;72.40;;;;;;5049291;28;20565;-66
2022/08/16 05:11:26;;;;;;;8.10;4.68;;;20.90;72.50;;;;;;5049677;28;20024;-66
2022/08/16 05:13:51;;;;;;;10.82;4.72;;;20.80;72.40;;;;;;5050241;28;20023;-66
2022/08/16 05:16:21;;;;;;;12.13;5.55;;;20.80;72.40;;;;;;5048664;28;20029;-66
2022/08/16 05:18:48;;;;;;;7.25;4.68;;;20.90;72.40;;;;;;5050137;28;20547;-66
2022/08/16 05:21:13;;;;;;;7.18;5.10;;;20.90;72.40;;;;;;5049615;28;20036;-66
2022/08/16 05:23:39;;;;;;;8.68;5.40;;;20.90;72.40;;;;;;5049585;28;20483;-67
2022/08/16 05:26:05;;;;;;;10.98;4.43;;;20.90;72.30;;;;;;5029813;28;20029;-66
2022/08/16 05:28:31;;;;;;;7.43;4.50;;;20.90;72.30;;;;;;5030329;28;20035;-66
2022/08/16 05:30:56;;;;;;;8.32;4.90;;;20.90;72.30;;;;;;5029396;28;20144;-65
2022/08/16 05:33:24;;;;;;;9.95;5.10;;;20.90;72.20;;;;;;5030019;28;20041;-66
2022/08/16 05:35:50;;;;;;;5.05;3.88;;;20.90;72.10;;;;;;5029828;28;20500;-66
2022/08/16 05:38:17;;;;;;;10.65;4.68;;;21.00;72.10;;;;;;5029782;28;20368;-66
2022/08/16 05:40:42;;;;;;;8.85;4.45;;;21.00;72.10;;;;;;5044078;28;20033;-66
2022/08/16 05:43:08;;;;;;;6.68;4.15;;;21.00;72.00;;;;;;5049814;28;20021;-66
2022/08/16 05:45:34;;;;;;;10.23;4.18;;;21.00;71.90;;;;;;5049948;28;20504;-65
2022/08/16 05:48:00;;;;;;;5.32;3.95;;;21.10;71.90;;;;;;5049760;28;20114;-66
2022/08/16 05:50:26;;;;;;;6.03;3.63;;;21.00;71.80;;;;;;5049820;28;20018;-66
2022/08/16 05:52:52;;;;;;;6.22;4.15;;;21.10;71.90;;;;;;5048961;28;20036;-66
2022/08/16 05:55:18;;;;;;;7.00;4.60;;;21.00;71.80;;;;;;5037444;28;20092;-66
2022/08/16 05:57:45;;;;;;;8.30;4.57;;;21.10;71.90;;;;;;5029867;28;20026;-67
2022/08/16 06:00:13;;;;;;;7.88;4.20;;;21.10;71.90;;;;;;5029860;28;20017;-66
2022/08/16 06:02:40;;;;;;;10.25;3.75;;;21.10;71.90;;;;;;5029161;28;20094;-66
2022/08/16 06:05:07;;;;;;;10.45;4.38;;;21.10;71.90;;;;;;5029939;28;20029;-66
2022/08/16 06:07:32;;;;;;;7.10;4.10;;;21.10;71.80;;;;;;5029711;28;20025;-66
2022/08/16 06:09:58;;;;;;;7.30;4.32;;;21.20;71.80;;;;;;5036602;28;20382;-66
2022/08/16 06:12:24;;;;;;;5.50;3.80;;;21.20;71.70;;;;;;5049300;28;20486;-66
2022/08/16 06:14:50;;;;;;;7.03;3.97;;;21.20;71.60;;;;;;5049251;28;20025;-66
2022/08/16 06:17:16;;;;;;;5.95;4.00;;;21.20;71.60;;;;;;5048489;28;20425;-66
2022/08/16 06:19:42;;;;;;;6.80;3.72;;;21.30;71.50;;;;;;5049078;28;20025;-66
2022/08/16 06:22:08;;;;;;;5.78;3.83;;;21.30;71.40;;;;;;5048781;28;20087;-66
2022/08/16 06:24:34;;;;;;;7.18;4.30;;;21.40;71.40;;;;;;5048232;28;20053;-66
2022/08/16 06:27:00;;;;;;;9.48;3.70;;;21.40;71.30;;;;;;5049592;28;20098;-66
2022/08/16 06:29:26;;;;;;;12.30;3.88;;;21.40;71.20;;;;;;5049346;28;20474;-66
2022/08/16 06:31:52;;;;;;;7.32;3.80;;;21.50;71.40;;;;;;5049222;28;20363;-66
2022/08/16 06:34:18;;;;;;;6.28;3.58;;;21.50;71.30;;;;;;5048950;28;20025;-66
2022/08/16 06:36:43;;;;;;;5.43;3.72;;;21.50;71.10;;;;;;5049685;28;20510;-66
2022/08/16 06:39:09;;;;;;;7.13;4.18;;;21.60;71.10;;;;;;5049380;28;20030;-66
2022/08/16 06:41:34;;;;;;;6.63;4.28;;;21.60;71.70;;;;;;5048118;28;20056;-66
2022/08/16 06:44:00;;;;;;;6.72;4.45;;;21.70;71.00;;;;;;5049384;28;20504;-66
2022/08/16 06:46:32;;;;;;;5.15;3.80;;;21.70;70.90;;;;;;5049551;28;20028;-66
2022/08/16 06:49:10;;;;;;;5.95;3.67;;;21.80;70.90;;;;;;5048847;28;20028;-66
2022/08/16 06:51:37;;;;;;;5.38;3.53;;;21.90;70.90;;;;;;5049031;28;20037;-66
2022/08/16 06:54:04;;;;;;;7.60;3.10;;;21.90;71.00;;;;;;5048873;28;20112;-66
2022/08/16 06:56:30;;;;;;;5.55;3.40;;;22.00;71.10;;;;;;5048402;28;20033;-66
2022/08/16 06:58:56;;;;;;;4.47;2.85;;;22.00;71.10;;;;;;5049159;28;20037;-66
2022/08/16 07:01:22;;;;;;;5.20;3.13;;;22.10;71.20;;;;;;5048070;28;20094;-66
2022/08/16 07:03:49;;;;;;;4.80;2.92;;;22.20;71.20;;;;;;5048665;28;20389;-66
2022/08/16 07:06:15;;;;;;;4.82;3.25;;;22.20;71.20;;;;;;5049426;28;20542;-66
2022/08/16 07:08:41;;;;;;;3.30;2.80;;;22.30;71.20;;;;;;5051479;28;20111;-66
2022/08/16 07:58:27;;;;;;;3.00;2.58;;;23.20;69.90;;;;;;5076142;23;20060;-67
2022/08/16 08:00:53;;;;;;;5.80;2.47;;;23.30;69.90;;;;;;5050922;28;20120;-68
2022/08/16 08:03:18;;;;;;;3.78;2.50;;;23.30;69.70;;;;;;5033875;28;20592;-68
2022/08/16 08:05:44;;;;;;;3.05;2.60;;;23.40;69.70;;;;;;5051469;28;20040;-67
2022/08/16 08:08:10;;;;;;;4.88;2.40;;;23.40;69.90;;;;;;5051889;28;20025;-68
2022/08/16 08:10:35;;;;;;;6.95;2.80;;;23.40;69.90;;;;;;5051330;28;20025;-69
2022/08/16 08:13:01;;;;;;;5.13;3.00;;;23.40;70.50;;;;;;5033142;28;20086;-67
2022/08/16 08:15:28;;;;;;;7.78;3.00;;;23.50;69.80;;;;;;5051702;28;20021;-67
2022/08/16 08:17:55;;;;;;;5.40;3.55;;;23.50;69.80;;;;;;5051616;28;20028;-67
2022/08/16 08:20:25;;;;;;;9.52;3.13;;;23.50;69.60;;;;;;5051328;28;20052;-68
2022/08/16 08:22:52;;;;;;;3.40;2.45;;;23.60;69.70;;;;;;5033229;28;20329;-68
2022/08/16 08:25:19;;;;;;;5.38;3.20;;;23.60;69.50;;;;;;5033308;28;20021;-68
2022/08/16 08:27:45;;;;;;;4.15;3.13;;;23.70;69.40;;;;;;5065042;28;20504;-67
2022/08/16 08:30:11;;;;;;;3.63;2.55;;;23.60;69.30;;;;;;5071098;28;20019;-68
2022/08/16 08:32:37;;;;;;;5.68;3.10;;;23.70;69.30;;;;;;5070896;28;20470;-67
2022/08/16 08:35:04;;;;;;;5.20;2.30;;;23.70;69.20;;;;;;5071108;28;20055;-67
2022/08/16 08:37:32;;;;;;;4.43;2.75;;;23.80;69.20;;;;;;5070992;28;20033;-67
2022/08/16 08:39:58;;;;;;;4.25;2.50;;;23.80;69.10;;;;;;5052632;28;20028;-68
2022/08/16 08:42:25;;;;;;;4.40;2.47;;;23.80;68.90;;;;;;5069289;28;20036;-67
2022/08/16 08:44:50;;;;;;;3.58;2.95;;;23.90;69.00;;;;;;5070728;28;20024;-68
2022/08/16 08:47:16;;;;;;;8.50;3.67;;;23.90;68.90;;;;;;5053320;28;20032;-68
2022/08/16 08:49:42;;;;;;;5.20;3.63;;;24.00;69.80;;;;;;5070819;28;20033;-67
2022/08/16 08:52:08;;;;;;;6.13;3.50;;;24.00;68.60;;;;;;5070507;28;20036;-68
2022/08/16 08:54:34;;;;;;;4.28;3.00;;;24.00;68.40;;;;;;5070319;28;20028;-68
2022/08/16 08:56:59;;;;;;;6.82;2.47;;;24.00;68.20;;;;;;5069296;28;20488;-67
2022/08/16 08:59:25;;;;;;;5.70;2.60;;;24.00;68.20;;;;;;5070745;28;20411;-68
2022/08/16 09:01:52;;;;;;;6.53;2.67;;;24.10;68.30;;;;;;5069593;28;20039;-68
2022/08/16 09:04:18;;;;;;;2.90;2.35;;;24.10;68.00;;;;;;5070282;28;20020;-67
2022/08/16 09:06:44;;;;;;;5.95;2.88;;;24.10;68.10;;;;;;5070625;28;20420;-67
2022/08/16 09:09:10;;;;;;;5.28;2.90;;;24.10;67.90;;;;;;5070141;28;20393;-67
2022/08/16 09:11:37;;;;;;;4.28;2.88;;;24.10;67.70;;;;;;5043974;28;20032;-68
2022/08/16 09:14:03;;;;;;;5.47;2.53;;;24.10;67.50;;;;;;5070337;28;20023;-67
2022/08/16 09:16:29;;;;;;;3.20;2.75;;;24.20;68.20;;;;;;5070147;28;20025;-67
2022/08/16 09:18:55;;;;;;;3.60;2.53;;;24.20;67.40;;;;;;5070469;28;20051;-67
2022/08/16 09:21:21;;;;;;;7.47;2.95;;;24.20;67.20;;;;;;5069901;28;20456;-67
2022/08/16 09:23:47;;;;;;;5.35;2.85;;;24.20;67.10;;;;;;5069907;28;20016;-67
2022/08/16 09:26:17;;;;;;;4.43;2.72;;;24.30;67.10;;;;;;5069689;28;20465;-67
2022/08/16 09:28:44;;;;;;;7.22;2.60;;;24.20;66.80;;;;;;5069220;28;20032;-67
2022/08/16 09:31:11;;;;;;;10.70;3.38;;;24.20;66.90;;;;;;5069191;28;20051;-67
2022/08/16 09:33:38;;;;;;;9.00;3.05;;;24.30;66.80;;;;;;5070223;28;20477;-67
2022/08/16 09:36:06;;;;;;;7.40;2.80;;;24.30;66.70;;;;;;5070111;28;20028;-68
2022/08/16 09:38:34;;;;;;;8.95;3.10;;;24.30;67.40;;;;;;5052121;28;20060;-67
2022/08/16 09:41:05;;;;;;;5.78;3.65;;;24.30;66.50;;;;;;5069281;28;20501;-67
2022/08/16 09:43:31;;;;;;;6.53;3.55;;;24.30;66.60;;;;;;5069038;28;20035;-67
2022/08/16 09:45:57;;;;;;;7.05;3.65;;;24.30;66.50;;;;;;5069985;28;20081;-67
2022/08/16 09:48:23;;;;;;;4.13;2.78;;;24.30;66.40;;;;;;5069417;28;20016;-67
2022/08/16 09:50:48;;;;;;;4.82;2.78;;;24.30;66.40;;;;;;5068961;28;20643;-67
2022/08/16 09:53:18;;;;;;;7.68;2.95;;;24.20;66.40;;;;;;5070049;28;20397;-67
2022/08/16 09:55:47;;;;;;;8.00;3.13;;;24.20;66.30;;;;;;5069604;28;20091;-67
2022/08/16 09:58:13;;;;;;;5.10;2.85;;;24.20;66.30;;;;;;5068354;28;20039;-67
2022/08/16 10:00:38;;;;;;;4.38;2.97;;;24.20;66.30;;;;;;5069572;28;20032;-67
2022/08/16 10:03:04;;;;;;;4.97;3.00;;;24.20;66.30;;;;;;5069823;28;20032;-67
2022/08/16 10:05:36;;;;;;;5.75;2.58;;;24.20;66.40;;;;;;5069234;28;20033;-67
2022/08/16 10:08:06;;;;;;;10.43;3.10;;;24.10;66.40;;;;;;5069664;28;20052;-67
2022/08/16 10:10:33;;;;;;;5.22;3.15;;;24.10;66.40;;;;;;5069457;28;20016;-68
2022/08/16 10:13:11;;;;;;;7.18;3.03;;;24.10;66.50;;;;;;5057162;28;20691;-67
2022/08/16 10:15:42;;;;;;;10.02;3.33;;;24.00;67.30;;;;;;5069250;28;20028;-68
2022/08/16 10:18:11;;;;;;;7.40;3.35;;;24.00;66.60;;;;;;5069944;28;20138;-67
2022/08/16 10:20:41;;;;;;;4.22;2.92;;;24.00;66.60;;;;;;5069335;28;20035;-67
2022/08/16 10:23:12;;;;;;;10.75;2.92;;;24.00;66.70;;;;;;5069133;28;20025;-67
2022/08/16 10:25:40;;;;;;;5.18;2.90;;;23.90;66.70;;;;;;5069268;28;20024;-67
2022/08/16 10:28:07;;;;;;;5.03;2.90;;;23.90;66.80;;;;;;5060608;28;20048;-67
2022/08/16 10:30:34;;;;;;;8.95;3.50;;;23.90;66.90;;;;;;5048848;28;20032;-67
2022/08/16 10:33:00;;;;;;;4.10;2.78;;;23.80;66.90;;;;;;5049022;28;20056;-67
2022/08/16 10:35:26;;;;;;;3.72;2.45;;;23.80;67.10;;;;;;5049020;28;20021;-67
2022/08/16 10:37:51;;;;;;;5.15;3.50;;;23.80;67.10;;;;;;5049180;28;20083;-67
2022/08/16 10:40:18;;;;;;;7.75;3.20;;;23.80;67.10;;;;;;5049171;28;20125;-67
2022/08/16 10:42:44;;;;;;;4.55;2.78;;;23.80;67.10;;;;;;5052544;28;20063;-68
2022/08/16 10:45:10;;;;;;;7.95;3.22;;;23.70;67.10;;;;;;5073193;28;20025;-67
2022/08/16 10:47:37;;;;;;;6.22;3.22;;;23.70;67.20;;;;;;5073386;28;20055;-67
2022/08/16 10:50:04;;;;;;;7.75;3.00;;;23.70;67.20;;;;;;5072839;28;20060;-67
2022/08/16 10:52:31;;;;;;;14.10;2.95;;;23.70;67.30;;;;;;5072666;28;20388;-67
2022/08/16 10:54:58;;;;;;;5.25;3.20;;;23.70;67.40;;;;;;5072895;28;20016;-67
2022/08/16 10:57:26;;;;;;;4.95;2.70;;;23.60;67.40;;;;;;5071740;28;20032;-68
2022/08/16 10:59:52;;;;;;;5.35;3.20;;;23.60;67.50;;;;;;5073052;28;20028;-67
2022/08/16 11:02:19;;;;;;;8.73;2.97;;;23.60;67.50;;;;;;5072334;28;20064;-67
2022/08/16 11:04:44;;;;;;;3.88;2.72;;;23.60;67.60;;;;;;5072768;28;20028;-67
2022/08/16 11:07:10;;;;;;;3.72;2.70;;;23.60;67.70;;;;;;5072853;28;20059;-67
2022/08/16 11:09:37;;;;;;;7.13;3.30;;;23.50;67.70;;;;;;5072776;28;20108;-67
2022/08/16 11:12:05;;;;;;;7.47;3.08;;;23.50;67.70;;;;;;5058891;28;20053;-67
2022/08/16 11:14:34;;;;;;;5.32;2.53;;;23.50;67.80;;;;;;5052732;28;20378;-67
2022/08/16 11:17:01;;;;;;;5.82;3.13;;;23.50;67.80;;;;;;5052637;28;20033;-67
2022/08/16 11:19:28;;;;;;;8.77;3.38;;;23.50;67.80;;;;;;5052881;28;20048;-67
2022/08/16 11:21:55;;;;;;;4.32;2.90;;;23.50;68.70;;;;;;5051818;28;20085;-67
2022/08/16 11:24:21;;;;;;;4.43;3.10;;;23.50;68.00;;;;;;5052472;28;20115;-67
2022/08/16 11:26:47;;;;;;;8.40;3.08;;;23.40;68.00;;;;;;5052075;28;20029;-67
2022/08/16 11:29:13;;;;;;;10.88;3.50;;;23.40;68.10;;;;;;5052013;28;20024;-69
2022/08/16 11:31:40;;;;;;;2.67;2.42;;;23.50;67.60;;;;;;5051901;28;20032;-69
2022/08/16 11:34:06;;;;;;;3.60;3.08;;;23.60;67.00;;;;;;5052209;28;20469;-69
2022/08/16 11:36:31;;;;;;;5.03;2.90;;;23.70;66.70;;;;;;5052118;28;20027;-69
2022/08/16 11:39:01;;;;;;;9.48;3.60;;;23.70;66.60;;;;;;5052191;28;20075;-69
2022/08/16 11:41:27;;;;;;;9.95;3.03;;;23.70;66.70;;;;;;5051228;28;20037;-69
2022/08/16 11:43:52;;;;;;;4.78;2.83;;;23.70;66.40;;;;;;5051810;28;20029;-69
2022/08/16 11:46:19;;;;;;;4.82;2.88;;;23.70;66.40;;;;;;5052180;28;20025;-69
2022/08/16 11:48:45;;;;;;;3.10;2.50;;;23.70;66.40;;;;;;5052125;28;20025;-69
2022/08/16 11:51:11;;;;;;;7.35;2.90;;;23.70;66.30;;;;;;5034827;28;20033;-69
2022/08/16 11:53:37;;;;;;;11.02;3.22;;;23.70;66.20;;;;;;5054272;28;20469;-70
2022/08/16 11:56:08;;;;;;;12.02;3.08;;;23.70;66.00;;;;;;5053541;28;20029;-70
2022/08/16 11:58:34;;;;;;;5.15;3.17;;;23.70;65.70;;;;;;5050771;28;20544;-67
2022/08/16 12:01:00;;;;;;;7.05;2.72;;;23.70;65.80;;;;;;5052072;28;20013;-68
2022/08/16 12:03:30;;;;;;;5.43;3.03;;;23.60;66.00;;;;;;5052181;28;20025;-67
2022/08/16 12:05:56;;;;;;;;;;;23.50;66.30;;;;;;5052724;28;20351;-67
2022/08/16 12:08:22;;;;;;;2.70;2.50;;;23.50;66.60;;;;;;5051455;28;19970;-67
2022/08/16 12:10:48;;;;;;;7.82;2.55;;;23.50;67.70;;;;;;5048776;28;20027;-67
2022/08/16 12:13:14;;;;;;;4.78;2.97;;;23.40;67.10;;;;;;5031471;28;20030;-67
2022/08/16 12:15:40;;;;;;;5.60;2.53;;;23.40;67.20;;;;;;5051835;28;20142;-67
2022/08/16 12:18:07;;;;;;;6.22;2.78;;;23.40;67.30;;;;;;5051417;28;20540;-67
2022/08/16 12:20:37;;;;;;;5.63;2.95;;;23.40;67.50;;;;;;5051168;28;20029;-67
2022/08/16 12:23:04;;;;;;;3.80;2.40;;;23.40;67.60;;;;;;5050221;28;20048;-67
2022/08/16 12:25:31;;;;;;;4.47;2.72;;;23.40;67.60;;;;;;5051914;28;20021;-67
2022/08/16 12:27:58;;;;;;;4.18;2.50;;;23.30;67.50;;;;;;5051541;28;20029;-67
2022/08/16 12:30:28;;;;;;;8.15;2.80;;;23.30;67.60;;;;;;5049828;28;20052;-67
2022/08/16 12:32:56;;;;;;;4.03;2.78;;;23.40;67.70;;;;;;5050997;28;20025;-70
2022/08/16 12:35:22;;;;;;;4.38;2.63;;;23.40;67.60;;;;;;5049965;28;20378;-67
2022/08/16 12:37:48;;;;;;;4.82;2.55;;;23.40;67.40;;;;;;5050335;28;20025;-67
2022/08/16 12:40:18;;;;;;;2.20;1.90;;;23.50;67.50;;;;;;5050031;28;20434;-66
2022/08/16 12:42:44;;;;;;;5.40;2.53;;;23.50;67.50;;;;;;5050969;28;20045;-66
2022/08/16 12:45:13;;;;;;;5.57;3.13;;;23.40;67.70;;;;;;5049863;28;20052;-66
2022/08/16 12:50:34;;;;;;;4.07;2.65;;;23.40;68.00;;;;;;5013347;28;20124;-66
2022/08/16 12:53:00;;;;;;;6.47;2.80;;;23.30;68.10;;;;;;5050468;28;20107;-67
2022/08/16 12:55:26;;;;;;;8.27;2.83;;;23.30;68.20;;;;;;5049801;28;20027;-66
2022/08/16 12:57:55;;;;;;;11.40;2.78;;;23.30;68.30;;;;;;5050663;28;20144;-67
2022/08/16 13:00:22;;;;;;;6.07;2.63;;;23.30;68.30;;;;;;5033173;28;21905;-67
2022/08/16 13:02:48;;;;;;;4.43;2.35;;;23.30;68.30;;;;;;5030579;28;20025;-66
2022/08/16 13:05:15;;;;;;;5.13;2.67;;;23.30;68.20;;;;;;5029074;28;20079;-66
2022/08/16 13:07:43;;;;;;;6.18;3.40;;;23.30;68.30;;;;;;5031206;28;20056;-66
2022/08/16 13:10:14;;;;;;;5.00;3.05;;;23.30;68.30;;;;;;5030848;28;20041;-66
2022/08/16 13:12:43;;;;;;;4.85;2.72;;;23.30;68.20;;;;;;5029503;28;20026;-67
2022/08/16 13:15:13;;;;;;;3.97;2.90;;;23.30;68.20;;;;;;5042613;28;20055;-67
2022/08/16 13:17:39;;;;;;;6.95;2.90;;;23.30;68.20;;;;;;5050620;28;20490;-66
2022/08/16 13:20:12;;;;;;;5.20;2.70;;;23.30;68.30;;;;;;5050236;28;20063;-66
2022/08/16 13:22:44;;;;;;;6.65;2.58;;;23.30;68.20;;;;;;5049895;28;20481;-66
2022/08/16 13:25:13;;;;;;;8.02;2.72;;;23.30;68.20;;;;;;5048754;28;20513;-67
2022/08/16 13:27:39;;;;;;;9.75;2.88;;;23.20;68.20;;;;;;5049500;28;20029;-66
2022/08/16 13:30:05;;;;;;;5.25;2.45;;;23.20;68.20;;;;;;5049300;28;20390;-66
2022/08/16 13:32:31;;;;;;;5.25;2.97;;;23.30;68.30;;;;;;5049654;28;20409;-66
2022/08/16 13:34:56;;;;;;;4.90;2.75;;;23.20;68.20;;;;;;5050076;28;20116;-66
2022/08/16 13:37:22;;;;;;;4.53;2.45;;;23.20;68.20;;;;;;5048578;28;20044;-66